Time;durP1;ratioP1;P1;durP2;ratioP2;P2;SDS_P1;SDS_P2;PMS_P1;PMS_P2;Temp;Humidity;BMP_temperature;BMP_pressure;BME280_temperature;BME280_humidity;BME280_pressure;Samples;Min_cycle;Max_cycle;Signal;HPM_P1;HPM_P2
2022/04/12 00:01:10;;;;;;;22.58;8.50;;;4.40;99.90;;;;;;5185046;28;20045;-73
2022/04/12 00:03:43;;;;;;;13.90;7.55;;;4.40;99.90;;;;;;5193782;28;20057;-73
2022/04/12 00:06:16;;;;;;;15.82;8.82;;;4.40;99.90;;;;;;5190857;28;20041;-73
2022/04/12 00:08:49;;;;;;;19.00;8.40;;;4.40;99.90;;;;;;5192384;28;20046;-73
2022/04/12 00:11:21;;;;;;;12.75;7.85;;;4.30;99.90;;;;;;5187340;28;20064;-73
2022/04/12 00:13:54;;;;;;;16.92;8.68;;;4.30;99.90;;;;;;5180005;28;20048;-73
2022/04/12 00:16:26;;;;;;;12.27;7.15;;;4.30;99.90;;;;;;5192253;28;20061;-73
2022/04/12 00:19:04;;;;;;;14.57;8.90;;;4.20;99.90;;;;;;5194526;28;20056;-73
2022/04/12 00:21:39;;;;;;;16.95;8.73;;;4.30;99.90;;;;;;5198052;28;20504;-73
2022/04/12 00:24:11;;;;;;;13.35;8.20;;;4.40;99.90;;;;;;5175365;28;20701;-73
2022/04/12 00:26:44;;;;;;;12.65;8.48;;;4.30;99.90;;;;;;5191534;28;20064;-73
2022/04/12 00:29:16;;;;;;;15.30;8.88;;;4.30;99.90;;;;;;5190642;28;20333;-73
2022/04/12 00:31:49;;;;;;;14.63;8.00;;;4.20;99.90;;;;;;5181109;28;20064;-72
2022/04/12 00:34:21;;;;;;;12.60;7.85;;;4.20;99.90;;;;;;5192878;28;20052;-73
2022/04/12 00:36:53;;;;;;;13.48;8.45;;;4.20;99.90;;;;;;5174937;28;21373;-73
2022/04/12 00:39:26;;;;;;;12.70;7.78;;;4.30;99.90;;;;;;5194335;28;20523;-73
2022/04/12 00:41:58;;;;;;;12.32;7.75;;;4.20;99.90;;;;;;5176970;28;20049;-73
2022/04/12 00:44:31;;;;;;;11.57;7.72;;;4.20;99.90;;;;;;5196557;28;20056;-73
2022/04/12 00:47:03;;;;;;;12.73;7.78;;;4.20;99.90;;;;;;5193469;28;20527;-73
2022/04/12 00:49:36;;;;;;;11.93;7.65;;;4.10;99.90;;;;;;5186487;28;20046;-74
2022/04/12 00:52:10;;;;;;;10.93;7.40;;;4.00;99.90;;;;;;5194296;28;20043;-73
2022/04/12 00:54:44;;;;;;;14.40;7.82;;;4.00;99.90;;;;;;5177418;28;20938;-73
2022/04/12 00:57:17;;;;;;;13.25;7.90;;;4.00;99.90;;;;;;5193599;28;20060;-73
2022/04/12 00:59:51;;;;;;;18.95;9.48;;;4.00;99.90;;;;;;5193656;28;20045;-73
2022/04/12 01:02:24;;;;;;;10.23;7.57;;;4.00;99.90;;;;;;5198712;28;20053;-74
2022/04/12 01:04:58;;;;;;;13.45;9.00;;;4.00;99.90;;;;;;5189224;28;20060;-73
2022/04/12 01:07:31;;;;;;;13.85;7.80;;;4.00;99.90;;;;;;5197425;28;20044;-73
2022/04/12 01:10:05;;;;;;;13.87;8.30;;;4.00;99.90;;;;;;5192505;28;20489;-74
2022/04/12 01:12:39;;;;;;;13.80;8.38;;;3.90;99.90;;;;;;5195006;28;21255;-74
2022/04/12 01:15:16;;;;;;;15.25;8.52;;;4.00;99.90;;;;;;5182011;28;20511;-74
2022/04/12 01:17:49;;;;;;;16.83;10.13;;;4.00;99.90;;;;;;5196365;28;20463;-74
2022/04/12 01:20:24;;;;;;;13.38;8.73;;;4.00;99.90;;;;;;5196791;28;20152;-74
2022/04/12 01:23:07;;;;;;;15.35;8.52;;;4.00;99.90;;;;;;5196305;28;20587;-73
2022/04/12 01:25:40;;;;;;;15.87;8.70;;;4.00;99.90;;;;;;5195930;28;20062;-73
2022/04/12 01:28:13;;;;;;;15.95;8.80;;;4.00;99.90;;;;;;5196106;28;20284;-74
2022/04/12 01:30:45;;;;;;;16.20;9.77;;;3.90;99.90;;;;;;5186917;28;20045;-74
2022/04/12 01:33:18;;;;;;;17.77;8.98;;;3.90;99.90;;;;;;5199446;28;20516;-73
2022/04/12 01:35:50;;;;;;;13.18;9.15;;;4.00;99.90;;;;;;5198397;28;20045;-73
2022/04/12 01:38:23;;;;;;;15.87;9.67;;;4.00;99.90;;;;;;5182542;28;20958;-73
2022/04/12 01:40:56;;;;;;;13.87;9.20;;;4.10;99.90;;;;;;5198391;28;20041;-74
2022/04/12 01:43:29;;;;;;;17.42;9.23;;;4.00;99.90;;;;;;5196754;28;20671;-74
2022/04/12 01:46:01;;;;;;;14.83;9.13;;;4.10;99.90;;;;;;5180828;28;20064;-73
2022/04/12 01:48:33;;;;;;;15.80;9.68;;;4.20;99.90;;;;;;5192934;28;20304;-73
2022/04/12 01:51:06;;;;;;;13.40;8.65;;;4.10;99.90;;;;;;5163322;28;20053;-73
2022/04/12 01:53:39;;;;;;;13.48;8.95;;;4.10;99.90;;;;;;5193551;28;20045;-73
2022/04/12 01:56:12;;;;;;;12.43;8.20;;;4.00;99.90;;;;;;5192206;28;20048;-73
2022/04/12 01:58:44;;;;;;;16.08;8.85;;;4.00;99.90;;;;;;5199952;28;20045;-73
2022/04/12 02:01:16;;;;;;;11.43;7.95;;;4.00;99.90;;;;;;5198898;28;20049;-73
2022/04/12 02:03:50;;;;;;;15.33;8.57;;;4.00;99.90;;;;;;5196998;28;20416;-73
2022/04/12 02:06:22;;;;;;;14.18;8.27;;;4.00;99.90;;;;;;5197136;28;20060;-74
2022/04/12 02:08:55;;;;;;;17.77;9.68;;;4.00;99.90;;;;;;5190847;28;20060;-73
2022/04/12 02:11:27;;;;;;;18.45;8.70;;;3.90;99.90;;;;;;5177651;28;20049;-73
2022/04/12 02:13:59;;;;;;;13.70;9.65;;;3.90;99.90;;;;;;5194160;28;20045;-73
2022/04/12 02:16:32;;;;;;;15.48;10.00;;;3.90;99.90;;;;;;5197268;28;20064;-75
2022/04/12 02:19:04;;;;;;;16.33;9.70;;;3.90;99.90;;;;;;5185132;28;20572;-73
2022/04/12 02:21:36;;;;;;;13.23;9.23;;;3.80;99.90;;;;;;5189374;28;20060;-74
2022/04/12 02:24:09;;;;;;;14.93;9.88;;;3.90;99.90;;;;;;5185666;28;21282;-73
2022/04/12 02:26:41;;;;;;;16.38;9.95;;;3.80;99.90;;;;;;5153255;28;20500;-74
2022/04/12 02:29:14;;;;;;;14.30;9.63;;;3.80;99.90;;;;;;5182357;28;20060;-74
2022/04/12 02:31:46;;;;;;;16.38;9.40;;;3.80;99.90;;;;;;5193971;28;20091;-73
2022/04/12 02:34:19;;;;;;;18.70;10.07;;;3.90;99.90;;;;;;5192957;28;20886;-73
2022/04/12 02:36:51;;;;;;;14.80;9.43;;;3.80;99.90;;;;;;5196165;28;20519;-74
2022/04/12 02:39:24;;;;;;;16.70;10.43;;;3.80;99.90;;;;;;5189692;28;20060;-73
2022/04/12 02:41:57;;;;;;;12.87;8.93;;;3.80;99.90;;;;;;5177227;28;20044;-73
2022/04/12 02:44:29;;;;;;;16.67;9.80;;;3.80;99.90;;;;;;5182009;28;20412;-73
2022/04/12 02:47:02;;;;;;;14.70;9.57;;;3.80;99.90;;;;;;5194358;28;20052;-73
2022/04/12 02:49:34;;;;;;;15.98;10.15;;;3.80;99.90;;;;;;5179622;28;21043;-73
2022/04/12 02:52:08;;;;;;;15.38;9.55;;;3.70;99.90;;;;;;5190805;28;20531;-73
2022/04/12 02:54:41;;;;;;;16.55;9.20;;;3.70;99.90;;;;;;5188191;28;20660;-73
2022/04/12 02:57:13;;;;;;;15.43;9.57;;;3.70;99.90;;;;;;5191642;28;20492;-73
2022/04/12 02:59:45;;;;;;;18.48;10.52;;;3.70;99.90;;;;;;5194402;28;20045;-73
2022/04/12 03:02:18;;;;;;;17.83;10.20;;;3.60;99.90;;;;;;5190284;28;20045;-73
2022/04/12 03:04:50;;;;;;;18.47;10.93;;;3.60;99.90;;;;;;5189521;28;20068;-73
2022/04/12 03:07:23;;;;;;;20.88;10.73;;;3.50;99.90;;;;;;5186702;28;20044;-73
2022/04/12 03:09:55;;;;;;;19.00;11.02;;;3.50;99.90;;;;;;5162493;28;20048;-73
2022/04/12 03:12:28;;;;;;;17.08;10.13;;;3.40;99.90;;;;;;5185608;28;20057;-73
2022/04/12 03:15:02;;;;;;;16.00;10.45;;;3.40;99.90;;;;;;5196661;28;20049;-73
2022/04/12 03:17:34;;;;;;;19.13;9.95;;;3.40;99.90;;;;;;5181659;28;20060;-73
2022/04/12 03:20:07;;;;;;;19.60;10.27;;;3.50;99.90;;;;;;5175727;28;20049;-73
2022/04/12 03:22:41;;;;;;;17.63;10.80;;;3.50;99.90;;;;;;5194309;28;20405;-73
2022/04/12 03:25:14;;;;;;;20.77;9.68;;;3.40;99.90;;;;;;5190106;28;20416;-73
2022/04/12 03:27:46;;;;;;;16.27;9.95;;;3.40;99.90;;;;;;5194942;28;20060;-72
2022/04/12 03:30:19;;;;;;;15.93;10.48;;;3.40;99.90;;;;;;5192877;28;20065;-73
2022/04/12 03:32:51;;;;;;;19.17;11.02;;;3.40;99.90;;;;;;5182992;28;20077;-73
2022/04/12 03:35:24;;;;;;;17.83;10.43;;;3.30;99.90;;;;;;5193455;28;20056;-73
2022/04/12 03:38:00;;;;;;;18.65;9.93;;;3.20;99.90;;;;;;5191041;28;21815;-73
2022/04/12 03:40:32;;;;;;;19.20;10.77;;;3.20;99.90;;;;;;5184145;28;20611;-73
2022/04/12 03:43:05;;;;;;;15.02;9.43;;;3.20;99.90;;;;;;5169112;28;20469;-72
2022/04/12 03:45:38;;;;;;;18.73;9.45;;;3.20;99.90;;;;;;5175869;28;20053;-73
2022/04/12 03:48:11;;;;;;;15.45;8.82;;;3.20;99.90;;;;;;5180225;28;20072;-73
2022/04/12 03:50:44;;;;;;;19.50;9.23;;;3.20;99.90;;;;;;5187898;28;20041;-73
2022/04/12 03:53:16;;;;;;;16.45;10.13;;;3.20;99.90;;;;;;5180632;28;20071;-74
2022/04/12 03:55:48;;;;;;;14.30;9.68;;;3.10;99.90;;;;;;5178489;28;20386;-72
2022/04/12 03:58:22;;;;;;;14.75;9.15;;;3.10;99.90;;;;;;5187211;28;21043;-73
2022/04/12 04:00:57;;;;;;;16.40;8.68;;;3.10;99.90;;;;;;5158757;28;20424;-73
2022/04/12 04:03:30;;;;;;;16.67;9.93;;;3.10;99.90;;;;;;5175145;28;20041;-73
2022/04/12 04:06:05;;;;;;;17.25;9.73;;;3.00;99.90;;;;;;5177851;28;20045;-72
2022/04/12 04:08:38;;;;;;;;;;;3.00;99.90;;;;;;5187254;28;21026;-73
2022/04/12 04:11:10;;;;;;;15.40;9.85;;;2.90;99.90;;;;;;5166046;28;19928;-73
2022/04/12 04:13:43;;;;;;;16.23;9.23;;;3.00;99.90;;;;;;5186840;28;20053;-73
2022/04/12 04:16:15;;;;;;;16.40;9.75;;;3.00;99.90;;;;;;5187292;28;20045;-72
2022/04/12 04:18:48;;;;;;;12.77;8.40;;;3.00;99.90;;;;;;5185298;28;20046;-73
2022/04/12 04:21:21;;;;;;;13.48;8.50;;;3.10;99.90;;;;;;5171598;28;20056;-73
2022/04/12 04:23:53;;;;;;;18.60;9.73;;;3.00;99.90;;;;;;5166746;28;20052;-72
2022/04/12 04:26:25;;;;;;;15.00;9.32;;;3.00;99.90;;;;;;5185299;28;20075;-72
2022/04/12 04:28:58;;;;;;;16.85;9.18;;;2.90;99.90;;;;;;5179651;28;20049;-73
2022/04/12 04:31:30;;;;;;;23.23;11.25;;;3.00;99.90;;;;;;5189974;28;20076;-72
2022/04/12 04:34:03;;;;;;;15.27;9.25;;;3.00;99.90;;;;;;5190459;28;20056;-73
2022/04/12 04:36:35;;;;;;;15.80;9.82;;;3.00;99.90;;;;;;5187580;28;20045;-73
2022/04/12 04:39:08;;;;;;;14.57;8.23;;;2.90;99.90;;;;;;5164295;28;20060;-73
2022/04/12 04:41:40;;;;;;;15.55;9.27;;;2.90;99.90;;;;;;5172303;28;20060;-74
2022/04/12 04:44:13;;;;;;;15.13;9.52;;;2.90;99.90;;;;;;5176873;28;20041;-74
2022/04/12 04:46:45;;;;;;;16.58;9.32;;;2.90;99.90;;;;;;5170664;28;20609;-73
2022/04/12 04:49:17;;;;;;;14.90;9.32;;;2.80;99.90;;;;;;5194217;28;20049;-73
2022/04/12 04:51:50;;;;;;;13.73;8.52;;;2.80;99.90;;;;;;5155349;28;20060;-73
2022/04/12 04:54:22;;;;;;;15.57;9.00;;;2.80;99.90;;;;;;5180821;28;20968;-73
2022/04/12 04:56:55;;;;;;;18.88;10.10;;;2.80;99.90;;;;;;5183800;28;20053;-73
2022/04/12 04:59:27;;;;;;;16.23;10.15;;;2.70;99.90;;;;;;5180515;28;21227;-72
2022/04/12 05:02:00;;;;;;;16.50;9.93;;;2.70;99.90;;;;;;5170494;28;20968;-73
2022/04/12 05:04:32;;;;;;;19.15;9.82;;;2.80;99.90;;;;;;5189783;28;20056;-73
2022/04/12 05:07:05;;;;;;;16.98;10.52;;;2.80;99.90;;;;;;5185221;28;20495;-73
2022/04/12 05:09:37;;;;;;;18.88;11.55;;;2.80;99.90;;;;;;5165886;28;20508;-73
2022/04/12 05:12:10;;;;;;;21.67;12.45;;;2.90;99.90;;;;;;5180907;28;20420;-73
2022/04/12 05:14:42;;;;;;;22.53;10.77;;;2.90;99.90;;;;;;5193988;28;20046;-73
2022/04/12 05:17:24;;;;;;;24.42;11.45;;;3.00;99.90;;;;;;5175613;28;20311;-73
2022/04/12 05:19:56;;;;;;;21.55;10.07;;;3.00;99.90;;;;;;5189638;28;20489;-73
2022/04/12 05:22:29;;;;;;;18.25;9.43;;;3.00;99.90;;;;;;5177438;28;20061;-73
2022/04/12 05:25:02;;;;;;;15.90;9.07;;;3.00;99.90;;;;;;5178804;28;20056;-73
2022/04/12 05:27:35;;;;;;;17.63;9.48;;;3.10;99.90;;;;;;5191819;28;20053;-72
2022/04/12 05:30:08;;;;;;;16.98;9.95;;;3.10;99.90;;;;;;5193670;28;20069;-73
2022/04/12 05:32:41;;;;;;;15.63;9.45;;;3.20;99.90;;;;;;5197822;28;20088;-72
2022/04/12 05:35:13;;;;;;;17.13;9.90;;;3.20;99.90;;;;;;5192706;28;20053;-72
2022/04/12 05:37:52;;;;;;;18.75;10.02;;;3.30;99.90;;;;;;5175426;28;20311;-73
2022/04/12 05:40:24;;;;;;;17.50;10.70;;;3.40;99.90;;;;;;5154811;28;20473;-73
2022/04/12 05:42:57;;;;;;;17.20;9.90;;;3.50;99.90;;;;;;5184287;28;20056;-72
2022/04/12 05:45:34;;;;;;;15.98;9.88;;;3.60;99.90;;;;;;5163291;28;20041;-73
2022/04/12 05:48:07;;;;;;;17.25;9.35;;;3.60;99.90;;;;;;5188606;28;20049;-73
2022/04/12 05:50:45;;;;;;;16.08;9.70;;;3.70;99.90;;;;;;5185941;28;20041;-73
2022/04/12 05:53:18;;;;;;;16.45;9.40;;;3.80;99.90;;;;;;5182052;28;20049;-73
2022/04/12 05:55:50;;;;;;;18.05;10.30;;;3.90;99.90;;;;;;5171984;28;20424;-73
2022/04/12 05:58:24;;;;;;;17.05;10.98;;;4.00;99.90;;;;;;5190636;28;20045;-73
2022/04/12 06:00:57;;;;;;;18.48;10.18;;;4.10;99.90;;;;;;5183344;28;20052;-73
2022/04/12 06:03:29;;;;;;;19.98;10.63;;;4.30;99.90;;;;;;5190315;28;20049;-73
2022/04/12 06:06:01;;;;;;;19.48;10.05;;;4.50;99.90;;;;;;5198252;28;20539;-73
2022/04/12 06:08:34;;;;;;;15.82;10.00;;;4.70;99.90;;;;;;5184995;28;21236;-73
2022/04/12 06:11:06;;;;;;;18.80;10.77;;;4.90;99.90;;;;;;5195525;28;22085;-73
2022/04/12 06:13:40;;;;;;;16.02;10.73;;;5.10;99.90;;;;;;5194101;28;20050;-72
2022/04/12 06:16:12;;;;;;;17.45;10.73;;;5.30;99.90;;;;;;5177531;28;20068;-72
2022/04/12 06:18:45;;;;;;;16.20;9.70;;;5.50;99.90;;;;;;5198158;28;20049;-71
2022/04/12 06:21:17;;;;;;;16.83;9.38;;;5.70;99.90;;;;;;5192331;28;20052;-72
2022/04/12 06:23:49;;;;;;;20.75;10.43;;;5.90;99.90;;;;;;5163313;28;20723;-71
2022/04/12 06:26:22;;;;;;;15.10;10.10;;;6.10;99.90;;;;;;5178610;28;20037;-72
2022/04/12 06:28:54;;;;;;;21.15;10.80;;;6.30;99.90;;;;;;5168424;28;20515;-72
2022/04/12 06:31:26;;;;;;;18.23;10.52;;;6.40;99.90;;;;;;5184385;28;20503;-72
2022/04/12 06:33:59;;;;;;;18.80;10.68;;;6.50;99.90;;;;;;5191115;28;20154;-72
2022/04/12 06:36:31;;;;;;;17.25;9.43;;;6.60;99.90;;;;;;5183814;28;20053;-72
2022/04/12 06:39:03;;;;;;;16.05;8.57;;;6.70;99.90;;;;;;5158145;28;20398;-72
2022/04/12 06:41:36;;;;;;;13.88;8.60;;;6.90;99.90;;;;;;5176390;28;20046;-71
2022/04/12 06:44:08;;;;;;;15.23;8.18;;;7.00;99.90;;;;;;5173901;28;20045;-72
2022/04/12 06:46:40;;;;;;;19.77;7.75;;;7.20;99.90;;;;;;5179471;28;20602;-71
2022/04/12 06:49:13;;;;;;;14.90;8.00;;;7.30;99.90;;;;;;5171651;28;20049;-72
2022/04/12 06:51:45;;;;;;;11.63;6.45;;;7.40;99.90;;;;;;5179338;28;20069;-71
2022/04/12 06:54:17;;;;;;;9.55;6.60;;;7.50;99.30;;;;;;5179384;28;20052;-71
2022/04/12 06:56:50;;;;;;;13.70;6.13;;;7.70;98.50;;;;;;5172341;28;20048;-72
2022/04/12 06:59:24;;;;;;;8.18;5.95;;;7.90;97.30;;;;;;5186593;28;20060;-71
2022/04/12 07:01:56;;;;;;;9.00;6.03;;;8.20;96.20;;;;;;5184380;28;20124;-73
2022/04/12 07:04:29;;;;;;;8.80;6.03;;;8.40;94.70;;;;;;5192905;28;20052;-72
2022/04/12 07:07:02;;;;;;;9.02;5.97;;;8.60;94.20;;;;;;5194229;28;20041;-71
2022/04/12 07:09:34;;;;;;;11.47;5.73;;;8.70;93.30;;;;;;5174802;28;20493;-71
2022/04/12 07:12:07;;;;;;;12.18;6.30;;;8.90;92.80;;;;;;5165254;28;20049;-72
2022/04/12 07:14:40;;;;;;;7.80;5.17;;;9.20;92.00;;;;;;5192605;28;20045;-71
2022/04/12 07:17:12;;;;;;;11.20;4.88;;;9.30;91.20;;;;;;5193310;28;20292;-72
2022/04/12 07:19:45;;;;;;;7.05;4.70;;;9.50;90.60;;;;;;5189773;28;20052;-72
2022/04/12 07:22:17;;;;;;;6.88;4.80;;;9.60;90.10;;;;;;5188221;28;21016;-72
2022/04/12 07:24:50;;;;;;;7.00;5.03;;;9.80;88.10;;;;;;5177810;28;20049;-72
2022/04/12 07:27:22;;;;;;;7.40;3.97;;;10.00;87.10;;;;;;5174467;28;20050;-71
2022/04/12 07:29:56;;;;;;;9.85;4.43;;;10.20;85.90;;;;;;5186362;28;20049;-72
2022/04/12 07:32:28;;;;;;;6.30;4.05;;;10.40;85.00;;;;;;5188215;28;20044;-72
2022/04/12 07:35:01;;;;;;;8.77;3.92;;;10.60;83.60;;;;;;5183281;28;20044;-72
2022/04/12 07:37:33;;;;;;;7.13;4.82;;;10.60;82.80;;;;;;5176238;28;20049;-72
2022/04/12 07:40:06;;;;;;;4.50;3.60;;;10.80;83.00;;;;;;5182516;28;20037;-71
2022/04/12 07:42:38;;;;;;;5.82;4.10;;;10.80;81.30;;;;;;5183172;28;20053;-72
2022/04/12 07:45:10;;;;;;;7.40;3.85;;;11.00;80.90;;;;;;5193622;28;20398;-72
2022/04/12 07:47:43;;;;;;;6.72;3.55;;;11.20;80.50;;;;;;5194406;28;20049;-72
2022/04/12 07:50:15;;;;;;;6.13;3.35;;;11.50;78.20;;;;;;5180929;28;20935;-71
2022/04/12 07:52:47;;;;;;;6.95;3.70;;;11.70;77.30;;;;;;5179241;28;20045;-72
2022/04/12 07:55:20;;;;;;;5.28;3.33;;;11.90;75.40;;;;;;5182907;28;20060;-72
2022/04/12 07:57:52;;;;;;;10.05;4.38;;;12.10;74.00;;;;;;5191106;28;20056;-71
2022/04/12 08:00:24;;;;;;;5.88;4.07;;;12.10;73.30;;;;;;5179251;28;20511;-72
2022/04/12 08:02:57;;;;;;;6.35;3.50;;;12.20;72.70;;;;;;5184648;28;20052;-72
2022/04/12 08:05:30;;;;;;;6.32;3.67;;;12.20;72.20;;;;;;5192958;28;20045;-72
2022/04/12 08:08:04;;;;;;;4.18;3.30;;;12.30;72.40;;;;;;5175093;28;20068;-72
2022/04/12 08:10:36;;;;;;;3.83;3.25;;;12.50;70.50;;;;;;5181598;28;20040;-72
2022/04/12 08:13:09;;;;;;;9.70;3.92;;;12.60;70.00;;;;;;5189852;28;20049;-72
2022/04/12 08:15:42;;;;;;;6.40;3.60;;;12.70;70.30;;;;;;5193155;28;20049;-72
2022/04/12 08:18:14;;;;;;;9.27;4.13;;;12.80;69.30;;;;;;5194503;28;20311;-72
2022/04/12 08:20:49;;;;;;;8.05;3.70;;;12.80;69.50;;;;;;5186073;28;20072;-72
2022/04/12 08:23:22;;;;;;;8.60;4.28;;;12.90;68.70;;;;;;5188513;28;20052;-72
2022/04/12 08:25:55;;;;;;;7.65;4.10;;;13.10;68.90;;;;;;5177559;28;20070;-72
2022/04/12 08:28:27;;;;;;;6.60;3.35;;;13.20;68.50;;;;;;5193791;28;20056;-72
2022/04/12 08:31:00;;;;;;;5.95;3.78;;;13.30;67.20;;;;;;5186196;28;20041;-72
2022/04/12 08:33:32;;;;;;;8.10;3.50;;;13.30;67.40;;;;;;5173858;28;20049;-72
2022/04/12 08:36:05;;;;;;;5.70;3.10;;;13.40;67.90;;;;;;5186895;28;20045;-72
2022/04/12 08:38:38;;;;;;;6.57;3.83;;;13.50;67.70;;;;;;5180838;28;20045;-72
2022/04/12 08:41:11;;;;;;;5.63;3.55;;;13.60;67.40;;;;;;5189053;28;20048;-72
2022/04/12 08:43:45;;;;;;;7.05;3.90;;;13.60;67.00;;;;;;5180868;28;20041;-72
2022/04/12 08:46:18;;;;;;;5.03;3.60;;;13.70;67.70;;;;;;5180580;28;20056;-72
2022/04/12 08:48:52;;;;;;;5.07;3.20;;;13.70;66.40;;;;;;5184042;28;20044;-73
2022/04/12 08:51:30;;;;;;;5.45;3.90;;;13.70;66.10;;;;;;5179828;28;20052;-73
2022/04/12 08:54:04;;;;;;;5.97;3.67;;;13.80;67.00;;;;;;5178662;28;20527;-72
2022/04/12 08:56:37;;;;;;;8.10;3.70;;;13.80;66.70;;;;;;5175978;28;20049;-71
2022/04/12 08:59:09;;;;;;;10.30;3.07;;;13.80;66.40;;;;;;5155960;28;20048;-72
2022/04/12 09:01:43;;;;;;;;;;;13.80;66.70;;;;;;5173605;28;20292;-73
2022/04/12 09:04:16;;;;;;;7.40;3.35;;;13.80;63.90;;;;;;5162990;28;20385;-72
2022/04/12 09:06:49;;;;;;;7.47;3.17;;;13.90;66.00;;;;;;5165090;28;20046;-72
2022/04/12 09:09:24;;;;;;;4.50;3.13;;;13.90;65.90;;;;;;5171245;28;20068;-72
2022/04/12 09:12:06;;;;;;;7.32;2.92;;;14.00;64.90;;;;;;5190112;28;20045;-72
2022/04/12 09:14:42;;;;;;;6.10;3.10;;;14.10;64.60;;;;;;5187426;28;20200;-72
2022/04/12 09:17:20;;;;;;;3.28;2.70;;;14.20;64.90;;;;;;5187633;28;20049;-73
2022/04/12 09:19:53;;;;;;;7.82;2.95;;;14.40;63.70;;;;;;5177432;28;20060;-73
2022/04/12 09:22:27;;;;;;;4.55;3.13;;;14.40;64.50;;;;;;5154991;28;20055;-72
2022/04/12 09:25:03;;;;;;;5.13;3.45;;;14.50;65.00;;;;;;5179140;28;20075;-72
2022/04/12 09:27:36;;;;;;;7.60;3.30;;;14.70;65.00;;;;;;5190691;28;20067;-72
2022/04/12 09:30:14;;;;;;;6.13;3.20;;;14.70;64.00;;;;;;5189962;28;20049;-73
2022/04/12 09:32:48;;;;;;;5.50;3.10;;;14.80;64.30;;;;;;5194815;28;20052;-73
2022/04/12 09:35:21;;;;;;;5.28;2.70;;;14.90;63.90;;;;;;5182562;28;20049;-74
2022/04/12 09:37:54;;;;;;;3.65;2.78;;;15.00;63.90;;;;;;5196051;28;20497;-72
2022/04/12 09:40:26;;;;;;;5.70;2.28;;;15.10;63.70;;;;;;5168759;28;20759;-72
2022/04/12 09:42:59;;;;;;;5.85;2.50;;;15.10;63.90;;;;;;5195355;28;20056;-72
2022/04/12 09:45:33;;;;;;;6.88;2.60;;;15.20;62.90;;;;;;5186809;28;20048;-72
2022/04/12 09:48:08;;;;;;;;;;;15.30;62.40;;;;;;5178929;28;20041;-72
2022/04/12 09:51:00;;;;;;;7.40;2.67;;;15.20;61.00;;;;;;5166473;28;19921;-73
2022/04/12 09:53:38;;;;;;;4.60;2.28;;;15.30;63.10;;;;;;5159251;28;20056;-72
2022/04/12 09:56:24;;;;;;;3.08;2.10;;;15.50;61.40;;;;;;5165585;28;20045;-73
2022/04/12 09:59:02;;;;;;;2.50;1.77;;;15.60;60.60;;;;;;5177271;28;20060;-73
2022/04/12 10:01:39;;;;;;;3.90;2.33;;;15.70;59.30;;;;;;5172605;28;20050;-72
2022/04/12 10:04:15;;;;;;;6.68;2.30;;;15.90;60.40;;;;;;5175019;28;20049;-72
2022/04/12 10:06:48;;;;;;;6.85;2.22;;;16.00;60.10;;;;;;5175760;28;20057;-72
2022/04/12 10:09:21;;;;;;;5.25;2.28;;;16.00;60.00;;;;;;5152377;28;20049;-72
2022/04/12 10:11:53;;;;;;;5.53;2.60;;;16.10;59.80;;;;;;5176239;28;20071;-72
2022/04/12 10:14:28;;;;;;;4.33;2.17;;;16.20;59.90;;;;;;5163574;28;20052;-72
2022/04/12 10:17:01;;;;;;;5.85;2.20;;;16.30;59.10;;;;;;5174076;28;20049;-72
2022/04/12 10:19:35;;;;;;;6.80;1.98;;;16.40;59.60;;;;;;5170971;28;20048;-72
2022/04/12 10:22:08;;;;;;;3.30;1.90;;;16.50;59.20;;;;;;5182813;28;20046;-73
2022/04/12 10:24:41;;;;;;;3.08;1.58;;;16.60;57.40;;;;;;5177074;28;20055;-74
2022/04/12 10:27:13;;;;;;;3.70;2.47;;;16.70;58.70;;;;;;5165754;28;20131;-73
2022/04/12 10:30:17;;;;;;;4.35;1.67;;;16.90;57.30;;;;;;5171911;28;20068;-73
2022/04/12 10:33:24;;;;;;;4.47;1.75;;;17.10;54.30;;;;;;5181652;28;20049;-73
2022/04/12 10:35:59;;;;;;;2.83;1.58;;;17.20;53.00;;;;;;5172128;28;20060;-73
2022/04/12 10:38:43;;;;;;;5.22;1.98;;;17.20;54.70;;;;;;5194206;28;20929;-73
2022/04/12 10:41:30;;;;;;;2.25;1.60;;;17.20;54.90;;;;;;5194794;28;20046;-73
2022/04/12 10:44:02;;;;;;;2.72;1.50;;;17.40;54.40;;;;;;5183208;28;20050;-73
2022/04/12 10:46:50;;;;;;;4.68;1.60;;;17.60;54.00;;;;;;5185517;28;20045;-72
2022/04/12 10:49:23;;;;;;;7.10;1.60;;;17.80;51.40;;;;;;5149267;28;20953;-72
2022/04/12 10:51:59;;;;;;;3.22;2.00;;;17.80;52.40;;;;;;5176145;28;20779;-72
2022/04/12 10:54:34;;;;;;;3.78;1.77;;;18.00;52.30;;;;;;5197069;28;20064;-73
2022/04/12 10:57:18;;;;;;;3.20;1.75;;;18.10;52.40;;;;;;5199156;28;20519;-73
2022/04/12 10:59:53;;;;;;;2.20;1.55;;;18.20;51.60;;;;;;5200005;28;20045;-73
2022/04/12 11:02:35;;;;;;;3.80;1.77;;;18.30;52.90;;;;;;5189491;28;20049;-74
2022/04/12 11:05:28;;;;;;;3.28;1.60;;;18.30;52.30;;;;;;5194160;28;20050;-74
2022/04/12 11:08:28;;;;;;;5.60;2.08;;;18.30;49.10;;;;;;5199588;28;20032;-74
2022/04/12 11:11:00;;;;;;;4.25;1.88;;;18.40;51.20;;;;;;5170094;28;20063;-74
2022/04/12 11:13:34;;;;;;;2.40;2.00;;;18.70;52.40;;;;;;5198106;28;20056;-75
2022/04/12 11:16:09;;;;;;;2.45;1.70;;;19.00;52.40;;;;;;5198290;28;20056;-74
2022/04/12 11:18:49;;;;;;;7.72;2.63;;;19.40;51.70;;;;;;5189742;28;20064;-74
2022/04/12 11:21:48;;;;;;;4.35;1.63;;;19.70;49.60;;;;;;5175116;28;20057;-74
2022/04/12 11:24:22;;;;;;;4.32;1.90;;;20.10;48.30;;;;;;5192925;28;20053;-74
2022/04/12 11:27:09;;;;;;;6.15;2.40;;;20.30;49.70;;;;;;5168075;28;20053;-74
2022/04/12 11:29:42;;;;;;;2.75;1.77;;;20.70;46.30;;;;;;5195778;28;20036;-74
2022/04/12 11:32:15;;;;;;;3.22;1.70;;;20.80;46.90;;;;;;5193645;28;20049;-74
2022/04/12 11:34:48;;;;;;;6.20;1.92;;;21.00;47.80;;;;;;5190349;28;20511;-74
2022/04/12 11:37:21;;;;;;;3.13;2.17;;;21.40;47.60;;;;;;5191337;28;20049;-74
2022/04/12 11:39:55;;;;;;;2.90;1.77;;;21.50;45.90;;;;;;5162536;28;20527;-73
2022/04/12 11:42:29;;;;;;;7.90;2.40;;;21.70;44.80;;;;;;5191566;28;20052;-74
2022/04/12 11:45:01;;;;;;;2.92;1.58;;;22.00;45.50;;;;;;5198967;28;20044;-74
2022/04/12 11:47:39;;;;;;;1.70;1.40;;;22.30;42.50;;;;;;5183075;28;20780;-74
2022/04/12 11:50:18;;;;;;;2.67;1.80;;;22.40;42.20;;;;;;5194221;28;20049;-74
2022/04/12 11:52:52;;;;;;;3.53;1.45;;;22.50;42.00;;;;;;5176529;28;20045;-73
2022/04/12 11:55:25;;;;;;;4.53;1.75;;;22.50;43.20;;;;;;5180008;28;20315;-74
2022/04/12 11:57:59;;;;;;;3.83;1.40;;;22.60;42.40;;;;;;5193119;28;20575;-74
2022/04/12 12:00:31;;;;;;;4.85;2.42;;;22.70;41.70;;;;;;5185260;28;20635;-74
2022/04/12 12:03:04;;;;;;;3.47;1.80;;;22.80;43.50;;;;;;5186279;28;20037;-74
2022/04/12 12:05:36;;;;;;;3.05;1.98;;;23.00;43.40;;;;;;5179401;28;20040;-74
2022/04/12 12:08:10;;;;;;;5.82;2.70;;;23.00;44.40;;;;;;5183032;28;20048;-73
2022/04/12 12:10:42;;;;;;;2.47;1.63;;;22.90;43.70;;;;;;5187963;28;20123;-74
2022/04/12 12:13:14;;;;;;;4.22;1.60;;;22.80;43.20;;;;;;5189981;28;20059;-74
2022/04/12 12:15:47;;;;;;;3.10;1.60;;;22.80;42.00;;;;;;5191349;28;20053;-73
2022/04/12 12:18:20;;;;;;;5.15;2.17;;;23.00;42.20;;;;;;5191504;28;20049;-73
2022/04/12 12:20:52;;;;;;;1.85;1.35;;;23.30;41.20;;;;;;5189270;28;20045;-73
2022/04/12 12:23:24;;;;;;;5.53;1.98;;;23.50;41.30;;;;;;5196323;28;20060;-74
2022/04/12 12:25:57;;;;;;;2.65;1.77;;;23.70;42.30;;;;;;5175827;28;20067;-73
2022/04/12 12:28:29;;;;;;;2.63;1.58;;;23.80;41.00;;;;;;5181975;28;20041;-74
2022/04/12 12:31:03;;;;;;;4.60;1.60;;;23.90;41.70;;;;;;5185480;28;20856;-74
2022/04/12 12:33:43;;;;;;;2.97;1.60;;;24.10;40.70;;;;;;5188456;28;20056;-74
2022/04/12 12:36:24;;;;;;;3.17;1.60;;;24.40;40.30;;;;;;5173743;28;20057;-74
2022/04/12 12:38:56;;;;;;;4.32;1.67;;;24.50;40.40;;;;;;5181484;28;20041;-74
2022/04/12 12:41:31;;;;;;;3.78;1.40;;;24.80;41.80;;;;;;5184638;28;20052;-74
2022/04/12 12:44:03;;;;;;;2.22;1.30;;;25.10;40.10;;;;;;5192911;28;20052;-73
2022/04/12 12:46:38;;;;;;;1.67;1.07;;;24.90;40.10;;;;;;5186782;28;20049;-72
2022/04/12 12:49:16;;;;;;;3.78;1.50;;;24.70;40.40;;;;;;5171097;28;21839;-73
2022/04/12 12:51:49;;;;;;;5.70;1.73;;;24.70;40.70;;;;;;5163087;28;20049;-72
2022/04/12 12:54:25;;;;;;;4.00;1.50;;;25.00;41.30;;;;;;5196318;28;20049;-73
2022/04/12 12:56:58;;;;;;;4.82;1.40;;;25.00;41.20;;;;;;5180069;28;20045;-72
2022/04/12 12:59:32;;;;;;;1.52;1.38;;;25.40;41.60;;;;;;5198765;28;20049;-73
2022/04/12 13:02:12;;;;;;;2.97;1.45;;;25.90;40.10;;;;;;5191499;28;20048;-72
2022/04/12 13:04:54;;;;;;;1.98;1.23;;;26.10;38.60;;;;;;5184792;28;20917;-73
2022/04/12 13:07:34;;;;;;;1.55;1.20;;;25.90;37.20;;;;;;5196732;28;20953;-73
2022/04/12 13:10:08;;;;;;;2.72;1.35;;;25.70;38.30;;;;;;5192187;28;20049;-73
2022/04/12 13:12:41;;;;;;;;;;;25.60;38.60;;;;;;5192562;28;20064;-73
2022/04/12 13:15:14;;;;;;;3.83;1.70;;;25.60;38.00;;;;;;5190847;28;19939;-72
2022/04/12 13:17:46;;;;;;;2.90;1.55;;;25.50;39.30;;;;;;5175415;28;20046;-74
2022/04/12 13:20:19;;;;;;;4.10;1.50;;;25.70;40.60;;;;;;5194108;28;20053;-73